Medon, Tennessee
Current Conditions -  °F | °C
As of 8:53 AM on Saturday 20 Dec 2014 (Local Time) from KMKL Reporting Station
Overcast Overcast  
Wind Chill: 33°   Ceiling: 6000
Heat Index: 38°   Visibility: 10mi
Dew Point: 30°   Wind: 7mph
Humidity: 73%   Direction: 60°ENE
Pressure: 30.28"   Gusts: NA
Location:  35.46°N, 88.87°W
Report Text: KMKL 201453Z 06006KT 10SM OVC060 03/M01 A3028 RMK AO2 SLP257 T00331011 50010
Loading
Personal Weather Stations






























Interactive Weather Map New forecast layout! Learn more

10-Day Weather Forecast

Advertisements
Track Severe Weather on mobile